sensor_id;sensor_type;location;lat;lon;timestamp;P1;durP1;ratioP1;P2;durP2;ratioP2
10554;SDS011;5326;51.522;7.388;2022-08-21T00:01:38;8.37;;;4.20;;
10554;SDS011;5326;51.522;7.388;2022-08-21T00:04:05;5.73;;;4.10;;
10554;SDS011;5326;51.522;7.388;2022-08-21T00:06:33;9.67;;;4.00;;
10554;SDS011;5326;51.522;7.388;2022-08-21T00:09:01;11.70;;;4.27;;
10554;SDS011;5326;51.522;7.388;2022-08-21T00:11:32;8.00;;;4.33;;
10554;SDS011;5326;51.522;7.388;2022-08-21T00:14:01;7.97;;;4.20;;
10554;SDS011;5326;51.522;7.388;2022-08-21T00:16:29;9.53;;;4.53;;
10554;SDS011;5326;51.522;7.388;2022-08-21T00:18:55;6.57;;;3.53;;
10554;SDS011;5326;51.522;7.388;2022-08-21T00:21:22;9.03;;;4.37;;
10554;SDS011;5326;51.522;7.388;2022-08-21T00:23:49;9.23;;;3.70;;
10554;SDS011;5326;51.522;7.388;2022-08-21T00:26:15;9.50;;;4.10;;
10554;SDS011;5326;51.522;7.388;2022-08-21T00:28:42;10.03;;;4.50;;
10554;SDS011;5326;51.522;7.388;2022-08-21T00:31:09;8.27;;;4.17;;
10554;SDS011;5326;51.522;7.388;2022-08-21T00:33:35;11.60;;;4.20;;
10554;SDS011;5326;51.522;7.388;2022-08-21T00:36:02;8.77;;;4.27;;
10554;SDS011;5326;51.522;7.388;2022-08-21T00:38:29;8.93;;;4.40;;
10554;SDS011;5326;51.522;7.388;2022-08-21T00:40:58;10.87;;;4.30;;
10554;SDS011;5326;51.522;7.388;2022-08-21T00:43:46;8.87;;;4.23;;
10554;SDS011;5326;51.522;7.388;2022-08-21T00:46:12;5.33;;;3.57;;
10554;SDS011;5326;51.522;7.388;2022-08-21T00:48:39;7.13;;;3.70;;
10554;SDS011;5326;51.522;7.388;2022-08-21T00:51:10;9.63;;;4.67;;
10554;SDS011;5326;51.522;7.388;2022-08-21T00:53:40;8.63;;;3.57;;
10554;SDS011;5326;51.522;7.388;2022-08-21T00:56:09;8.80;;;4.43;;
10554;SDS011;5326;51.522;7.388;2022-08-21T00:58:37;7.47;;;3.90;;
10554;SDS011;5326;51.522;7.388;2022-08-21T01:01:08;9.50;;;4.73;;
10554;SDS011;5326;51.522;7.388;2022-08-21T01:03:35;9.93;;;4.33;;
10554;SDS011;5326;51.522;7.388;2022-08-21T01:06:02;9.70;;;4.77;;
10554;SDS011;5326;51.522;7.388;2022-08-21T01:08:30;7.20;;;4.00;;
10554;SDS011;5326;51.522;7.388;2022-08-21T01:10:57;7.73;;;4.40;;
10554;SDS011;5326;51.522;7.388;2022-08-21T01:13:29;11.77;;;5.10;;
10554;SDS011;5326;51.522;7.388;2022-08-21T01:15:57;12.73;;;4.93;;
10554;SDS011;5326;51.522;7.388;2022-08-21T01:18:26;6.63;;;4.30;;
10554;SDS011;5326;51.522;7.388;2022-08-21T01:21:35;9.43;;;4.87;;
10554;SDS011;5326;51.522;7.388;2022-08-21T01:23:53;9.07;;;4.57;;
10554;SDS011;5326;51.522;7.388;2022-08-21T01:26:22;10.73;;;4.97;;
10554;SDS011;5326;51.522;7.388;2022-08-21T01:29:02;12.37;;;4.93;;
10554;SDS011;5326;51.522;7.388;2022-08-21T01:31:30;11.07;;;4.83;;
10554;SDS011;5326;51.522;7.388;2022-08-21T01:33:58;9.27;;;4.90;;
10554;SDS011;5326;51.522;7.388;2022-08-21T01:36:25;10.57;;;4.77;;
10554;SDS011;5326;51.522;7.388;2022-08-21T01:38:52;7.57;;;4.53;;
10554;SDS011;5326;51.522;7.388;2022-08-21T01:41:18;8.90;;;5.00;;
10554;SDS011;5326;51.522;7.388;2022-08-21T01:43:45;9.20;;;4.43;;
10554;SDS011;5326;51.522;7.388;2022-08-21T01:46:12;10.20;;;5.17;;
10554;SDS011;5326;51.522;7.388;2022-08-21T01:48:39;15.03;;;5.23;;
10554;SDS011;5326;51.522;7.388;2022-08-21T01:51:06;11.13;;;4.47;;
10554;SDS011;5326;51.522;7.388;2022-08-21T01:53:33;9.53;;;4.77;;
10554;SDS011;5326;51.522;7.388;2022-08-21T01:56:03;10.40;;;4.47;;
10554;SDS011;5326;51.522;7.388;2022-08-21T01:58:37;8.70;;;4.37;;
10554;SDS011;5326;51.522;7.388;2022-08-21T02:01:05;7.83;;;4.13;;
10554;SDS011;5326;51.522;7.388;2022-08-21T02:03:32;8.23;;;5.00;;
10554;SDS011;5326;51.522;7.388;2022-08-21T02:06:02;10.20;;;4.10;;
10554;SDS011;5326;51.522;7.388;2022-08-21T02:08:29;8.13;;;4.30;;
10554;SDS011;5326;51.522;7.388;2022-08-21T02:10:56;9.00;;;4.23;;
10554;SDS011;5326;51.522;7.388;2022-08-21T02:13:23;6.67;;;3.93;;
10554;SDS011;5326;51.522;7.388;2022-08-21T02:15:50;10.50;;;4.47;;
10554;SDS011;5326;51.522;7.388;2022-08-21T02:18:16;9.23;;;4.53;;
10554;SDS011;5326;51.522;7.388;2022-08-21T02:20:44;8.47;;;3.77;;
10554;SDS011;5326;51.522;7.388;2022-08-21T02:23:13;6.30;;;3.87;;
10554;SDS011;5326;51.522;7.388;2022-08-21T02:25:40;8.90;;;4.00;;
10554;SDS011;5326;51.522;7.388;2022-08-21T02:28:07;12.90;;;4.10;;
10554;SDS011;5326;51.522;7.388;2022-08-21T02:30:40;8.37;;;4.40;;
10554;SDS011;5326;51.522;7.388;2022-08-21T02:33:09;8.87;;;3.93;;
10554;SDS011;5326;51.522;7.388;2022-08-21T02:35:38;7.90;;;4.00;;
10554;SDS011;5326;51.522;7.388;2022-08-21T02:38:06;8.70;;;4.57;;
10554;SDS011;5326;51.522;7.388;2022-08-21T02:40:39;9.57;;;3.97;;
10554;SDS011;5326;51.522;7.388;2022-08-21T02:43:13;7.87;;;4.00;;
10554;SDS011;5326;51.522;7.388;2022-08-21T02:45:41;7.53;;;3.90;;
10554;SDS011;5326;51.522;7.388;2022-08-21T02:48:09;8.00;;;4.60;;
10554;SDS011;5326;51.522;7.388;2022-08-21T02:50:41;8.57;;;4.00;;
10554;SDS011;5326;51.522;7.388;2022-08-21T02:53:11;7.80;;;4.20;;
10554;SDS011;5326;51.522;7.388;2022-08-21T02:55:40;7.00;;;4.00;;
10554;SDS011;5326;51.522;7.388;2022-08-21T02:58:07;9.57;;;4.07;;
10554;SDS011;5326;51.522;7.388;2022-08-21T03:00:34;6.20;;;4.30;;
10554;SDS011;5326;51.522;7.388;2022-08-21T03:03:03;6.47;;;3.73;;
10554;SDS011;5326;51.522;7.388;2022-08-21T03:05:30;7.77;;;3.57;;
10554;SDS011;5326;51.522;7.388;2022-08-21T03:07:58;8.70;;;4.20;;
10554;SDS011;5326;51.522;7.388;2022-08-21T03:10:26;6.13;;;3.57;;
10554;SDS011;5326;51.522;7.388;2022-08-21T03:12:53;7.70;;;4.17;;
10554;SDS011;5326;51.522;7.388;2022-08-21T03:15:21;9.57;;;4.17;;
10554;SDS011;5326;51.522;7.388;2022-08-21T03:17:50;7.60;;;4.43;;
10554;SDS011;5326;51.522;7.388;2022-08-21T03:20:18;10.80;;;4.10;;
10554;SDS011;5326;51.522;7.388;2022-08-21T03:22:46;8.07;;;3.90;;
10554;SDS011;5326;51.522;7.388;2022-08-21T03:25:18;6.43;;;3.80;;
10554;SDS011;5326;51.522;7.388;2022-08-21T03:28:07;9.40;;;4.53;;
10554;SDS011;5326;51.522;7.388;2022-08-21T03:30:39;8.33;;;4.70;;
10554;SDS011;5326;51.522;7.388;2022-08-21T03:33:10;5.97;;;3.67;;
10554;SDS011;5326;51.522;7.388;2022-08-21T03:35:41;12.53;;;3.90;;
10554;SDS011;5326;51.522;7.388;2022-08-21T03:38:08;9.97;;;4.43;;
10554;SDS011;5326;51.522;7.388;2022-08-21T03:40:35;7.50;;;3.97;;
10554;SDS011;5326;51.522;7.388;2022-08-21T03:43:02;6.23;;;4.17;;
10554;SDS011;5326;51.522;7.388;2022-08-21T03:45:28;8.67;;;4.10;;
10554;SDS011;5326;51.522;7.388;2022-08-21T03:50:25;10.33;;;4.20;;
10554;SDS011;5326;51.522;7.388;2022-08-21T03:52:53;7.73;;;4.00;;
10554;SDS011;5326;51.522;7.388;2022-08-21T03:55:20;6.33;;;3.77;;
10554;SDS011;5326;51.522;7.388;2022-08-21T03:57:47;10.80;;;4.33;;
10554;SDS011;5326;51.522;7.388;2022-08-21T04:00:14;7.83;;;4.30;;
10554;SDS011;5326;51.522;7.388;2022-08-21T04:02:41;6.87;;;4.13;;
10554;SDS011;5326;51.522;7.388;2022-08-21T04:05:10;5.70;;;4.13;;
10554;SDS011;5326;51.522;7.388;2022-08-21T04:07:37;10.43;;;4.53;;
10554;SDS011;5326;51.522;7.388;2022-08-21T04:10:05;7.03;;;4.30;;
10554;SDS011;5326;51.522;7.388;2022-08-21T04:12:32;8.50;;;4.30;;
10554;SDS011;5326;51.522;7.388;2022-08-21T04:14:59;10.23;;;3.87;;
10554;SDS011;5326;51.522;7.388;2022-08-21T04:17:27;5.77;;;3.87;;
10554;SDS011;5326;51.522;7.388;2022-08-21T04:19:54;9.40;;;4.60;;
10554;SDS011;5326;51.522;7.388;2022-08-21T04:22:21;8.63;;;4.07;;
10554;SDS011;5326;51.522;7.388;2022-08-21T04:24:48;5.10;;;3.93;;
10554;SDS011;5326;51.522;7.388;2022-08-21T04:27:15;6.50;;;3.80;;
10554;SDS011;5326;51.522;7.388;2022-08-21T04:29:42;6.30;;;4.30;;
10554;SDS011;5326;51.522;7.388;2022-08-21T04:32:09;9.97;;;4.90;;
10554;SDS011;5326;51.522;7.388;2022-08-21T04:34:35;9.03;;;4.47;;
10554;SDS011;5326;51.522;7.388;2022-08-21T04:37:02;13.23;;;4.80;;
10554;SDS011;5326;51.522;7.388;2022-08-21T04:39:29;9.33;;;4.70;;
10554;SDS011;5326;51.522;7.388;2022-08-21T04:41:55;6.67;;;4.40;;
10554;SDS011;5326;51.522;7.388;2022-08-21T04:44:22;6.57;;;4.10;;
10554;SDS011;5326;51.522;7.388;2022-08-21T04:46:49;7.77;;;4.20;;
10554;SDS011;5326;51.522;7.388;2022-08-21T04:49:15;9.43;;;4.70;;
10554;SDS011;5326;51.522;7.388;2022-08-21T04:51:42;5.20;;;4.30;;
10554;SDS011;5326;51.522;7.388;2022-08-21T04:54:10;12.03;;;4.20;;
10554;SDS011;5326;51.522;7.388;2022-08-21T04:56:47;8.13;;;4.23;;
10554;SDS011;5326;51.522;7.388;2022-08-21T04:59:19;9.73;;;4.67;;
10554;SDS011;5326;51.522;7.388;2022-08-21T05:01:53;6.53;;;4.10;;
10554;SDS011;5326;51.522;7.388;2022-08-21T05:04:25;8.90;;;4.20;;
10554;SDS011;5326;51.522;7.388;2022-08-21T05:06:54;9.87;;;4.80;;
10554;SDS011;5326;51.522;7.388;2022-08-21T05:09:23;10.17;;;4.17;;
10554;SDS011;5326;51.522;7.388;2022-08-21T05:11:50;8.93;;;4.73;;
10554;SDS011;5326;51.522;7.388;2022-08-21T05:14:19;6.63;;;4.10;;
10554;SDS011;5326;51.522;7.388;2022-08-21T05:16:45;6.10;;;4.40;;
10554;SDS011;5326;51.522;7.388;2022-08-21T05:19:12;7.57;;;4.47;;
10554;SDS011;5326;51.522;7.388;2022-08-21T05:21:40;9.13;;;5.20;;
10554;SDS011;5326;51.522;7.388;2022-08-21T05:24:11;6.23;;;4.47;;
10554;SDS011;5326;51.522;7.388;2022-08-21T05:26:38;7.10;;;4.93;;
10554;SDS011;5326;51.522;7.388;2022-08-21T05:29:12;7.03;;;4.80;;
10554;SDS011;5326;51.522;7.388;2022-08-21T05:31:41;8.33;;;4.80;;
10554;SDS011;5326;51.522;7.388;2022-08-21T05:34:08;7.27;;;4.97;;
10554;SDS011;5326;51.522;7.388;2022-08-21T05:36:35;9.37;;;4.70;;
10554;SDS011;5326;51.522;7.388;2022-08-21T05:39:02;9.20;;;5.17;;
10554;SDS011;5326;51.522;7.388;2022-08-21T05:41:29;11.63;;;5.40;;
10554;SDS011;5326;51.522;7.388;2022-08-21T05:43:59;6.03;;;5.10;;
10554;SDS011;5326;51.522;7.388;2022-08-21T05:46:26;6.07;;;4.83;;
10554;SDS011;5326;51.522;7.388;2022-08-21T05:48:52;11.67;;;5.70;;
10554;SDS011;5326;51.522;7.388;2022-08-21T05:51:19;5.90;;;4.70;;
10554;SDS011;5326;51.522;7.388;2022-08-21T05:53:46;8.70;;;5.07;;
10554;SDS011;5326;51.522;7.388;2022-08-21T05:56:13;9.20;;;5.10;;
10554;SDS011;5326;51.522;7.388;2022-08-21T05:58:40;8.80;;;4.77;;
10554;SDS011;5326;51.522;7.388;2022-08-21T06:01:07;9.90;;;5.17;;
10554;SDS011;5326;51.522;7.388;2022-08-21T06:03:36;8.83;;;5.60;;
10554;SDS011;5326;51.522;7.388;2022-08-21T06:06:04;12.13;;;5.60;;
10554;SDS011;5326;51.522;7.388;2022-08-21T06:08:31;16.10;;;6.67;;
10554;SDS011;5326;51.522;7.388;2022-08-21T06:10:59;14.77;;;7.40;;
10554;SDS011;5326;51.522;7.388;2022-08-21T06:13:26;11.70;;;6.17;;
10554;SDS011;5326;51.522;7.388;2022-08-21T06:16:04;11.27;;;6.40;;
10554;SDS011;5326;51.522;7.388;2022-08-21T06:18:41;9.63;;;5.80;;
10554;SDS011;5326;51.522;7.388;2022-08-21T06:21:09;9.43;;;5.57;;
10554;SDS011;5326;51.522;7.388;2022-08-21T06:23:37;10.77;;;6.27;;
10554;SDS011;5326;51.522;7.388;2022-08-21T06:26:04;13.67;;;6.90;;
10554;SDS011;5326;51.522;7.388;2022-08-21T06:28:32;10.93;;;6.80;;
10554;SDS011;5326;51.522;7.388;2022-08-21T06:30:59;15.67;;;6.90;;
10554;SDS011;5326;51.522;7.388;2022-08-21T06:33:27;14.30;;;6.17;;
10554;SDS011;5326;51.522;7.388;2022-08-21T06:35:58;12.43;;;6.40;;
10554;SDS011;5326;51.522;7.388;2022-08-21T06:38:24;12.20;;;6.03;;
10554;SDS011;5326;51.522;7.388;2022-08-21T06:40:51;12.97;;;6.10;;
10554;SDS011;5326;51.522;7.388;2022-08-21T06:43:18;15.03;;;6.83;;
10554;SDS011;5326;51.522;7.388;2022-08-21T06:45:45;10.67;;;5.53;;
10554;SDS011;5326;51.522;7.388;2022-08-21T06:48:11;10.17;;;5.87;;
10554;SDS011;5326;51.522;7.388;2022-08-21T06:50:44;9.37;;;5.80;;
10554;SDS011;5326;51.522;7.388;2022-08-21T06:53:11;10.80;;;5.23;;
10554;SDS011;5326;51.522;7.388;2022-08-21T06:55:39;8.37;;;4.60;;
10554;SDS011;5326;51.522;7.388;2022-08-21T06:58:08;13.57;;;5.70;;
10554;SDS011;5326;51.522;7.388;2022-08-21T07:00:36;11.83;;;5.40;;
10554;SDS011;5326;51.522;7.388;2022-08-21T07:03:05;14.47;;;5.50;;
10554;SDS011;5326;51.522;7.388;2022-08-21T07:05:32;16.07;;;7.07;;
10554;SDS011;5326;51.522;7.388;2022-08-21T07:07:59;10.93;;;5.80;;
10554;SDS011;5326;51.522;7.388;2022-08-21T07:10:26;12.10;;;5.30;;
10554;SDS011;5326;51.522;7.388;2022-08-21T07:12:53;12.20;;;6.13;;
10554;SDS011;5326;51.522;7.388;2022-08-21T07:15:27;10.17;;;5.93;;
10554;SDS011;5326;51.522;7.388;2022-08-21T07:17:55;15.47;;;6.80;;
10554;SDS011;5326;51.522;7.388;2022-08-21T07:20:23;10.63;;;5.90;;
10554;SDS011;5326;51.522;7.388;2022-08-21T07:22:50;12.83;;;5.67;;
10554;SDS011;5326;51.522;7.388;2022-08-21T07:25:17;11.00;;;5.10;;
10554;SDS011;5326;51.522;7.388;2022-08-21T07:27:43;10.70;;;6.73;;
10554;SDS011;5326;51.522;7.388;2022-08-21T07:30:10;17.87;;;7.00;;
10554;SDS011;5326;51.522;7.388;2022-08-21T07:32:37;11.17;;;6.80;;
10554;SDS011;5326;51.522;7.388;2022-08-21T07:35:05;16.23;;;6.67;;
10554;SDS011;5326;51.522;7.388;2022-08-21T07:37:32;14.27;;;4.90;;
10554;SDS011;5326;51.522;7.388;2022-08-21T07:39:58;13.57;;;7.77;;
10554;SDS011;5326;51.522;7.388;2022-08-21T07:42:25;14.63;;;7.60;;
10554;SDS011;5326;51.522;7.388;2022-08-21T07:44:52;14.47;;;6.50;;
10554;SDS011;5326;51.522;7.388;2022-08-21T07:47:21;14.50;;;6.50;;
10554;SDS011;5326;51.522;7.388;2022-08-21T07:50:07;17.17;;;6.57;;
10554;SDS011;5326;51.522;7.388;2022-08-21T07:52:34;11.27;;;5.30;;
10554;SDS011;5326;51.522;7.388;2022-08-21T07:55:01;16.67;;;7.83;;
10554;SDS011;5326;51.522;7.388;2022-08-21T07:57:31;14.77;;;8.10;;
10554;SDS011;5326;51.522;7.388;2022-08-21T07:59:58;14.83;;;6.47;;
10554;SDS011;5326;51.522;7.388;2022-08-21T08:02:26;15.03;;;5.50;;
10554;SDS011;5326;51.522;7.388;2022-08-21T08:04:53;12.23;;;5.63;;
10554;SDS011;5326;51.522;7.388;2022-08-21T08:07:20;9.87;;;4.83;;
10554;SDS011;5326;51.522;7.388;2022-08-21T08:09:47;15.37;;;7.00;;
10554;SDS011;5326;51.522;7.388;2022-08-21T08:12:13;16.17;;;5.80;;
10554;SDS011;5326;51.522;7.388;2022-08-21T08:14:40;13.77;;;5.80;;
10554;SDS011;5326;51.522;7.388;2022-08-21T08:17:06;12.00;;;4.80;;
10554;SDS011;5326;51.522;7.388;2022-08-21T08:19:33;15.60;;;4.67;;
10554;SDS011;5326;51.522;7.388;2022-08-21T08:21:59;12.00;;;4.97;;
10554;SDS011;5326;51.522;7.388;2022-08-21T08:24:26;9.37;;;4.20;;
10554;SDS011;5326;51.522;7.388;2022-08-21T08:26:52;10.20;;;4.07;;
10554;SDS011;5326;51.522;7.388;2022-08-21T08:29:20;10.90;;;4.13;;
10554;SDS011;5326;51.522;7.388;2022-08-21T08:31:47;9.90;;;3.70;;
10554;SDS011;5326;51.522;7.388;2022-08-21T08:34:14;14.40;;;3.70;;
10554;SDS011;5326;51.522;7.388;2022-08-21T08:36:50;11.70;;;3.87;;
10554;SDS011;5326;51.522;7.388;2022-08-21T08:39:17;14.30;;;3.77;;
10554;SDS011;5326;51.522;7.388;2022-08-21T08:41:57;8.93;;;3.53;;
10554;SDS011;5326;51.522;7.388;2022-08-21T08:44:48;9.90;;;3.43;;
10554;SDS011;5326;51.522;7.388;2022-08-21T08:47:16;8.43;;;3.20;;
10554;SDS011;5326;51.522;7.388;2022-08-21T08:52:30;8.80;;;3.17;;
10554;SDS011;5326;51.522;7.388;2022-08-21T08:57:36;10.50;;;3.17;;
10554;SDS011;5326;51.522;7.388;2022-08-21T09:00:05;8.17;;;3.00;;
10554;SDS011;5326;51.522;7.388;2022-08-21T09:02:38;8.70;;;3.10;;
10554;SDS011;5326;51.522;7.388;2022-08-21T09:05:05;14.67;;;8.47;;
10554;SDS011;5326;51.522;7.388;2022-08-21T09:15:32;7.00;;;2.97;;
10554;SDS011;5326;51.522;7.388;2022-08-21T09:27:13;9.07;;;2.97;;
10554;SDS011;5326;51.522;7.388;2022-08-21T09:29:46;8.00;;;3.13;;
10554;SDS011;5326;51.522;7.388;2022-08-21T09:37:32;8.00;;;2.90;;
10554;SDS011;5326;51.522;7.388;2022-08-21T09:40:02;6.83;;;2.53;;
10554;SDS011;5326;51.522;7.388;2022-08-21T09:42:40;9.10;;;2.87;;
10554;SDS011;5326;51.522;7.388;2022-08-21T09:45:12;8.00;;;3.27;;
10554;SDS011;5326;51.522;7.388;2022-08-21T09:47:42;9.50;;;3.53;;
10554;SDS011;5326;51.522;7.388;2022-08-21T09:50:12;10.80;;;2.73;;
10554;SDS011;5326;51.522;7.388;2022-08-21T09:52:45;6.93;;;2.70;;
10554;SDS011;5326;51.522;7.388;2022-08-21T09:55:19;9.97;;;3.17;;
10554;SDS011;5326;51.522;7.388;2022-08-21T09:58:33;7.27;;;2.87;;
10554;SDS011;5326;51.522;7.388;2022-08-21T10:01:02;7.83;;;3.37;;
10554;SDS011;5326;51.522;7.388;2022-08-21T10:03:30;6.50;;;2.60;;
10554;SDS011;5326;51.522;7.388;2022-08-21T10:08:24;7.63;;;2.97;;
10554;SDS011;5326;51.522;7.388;2022-08-21T10:10:55;6.60;;;2.87;;
10554;SDS011;5326;51.522;7.388;2022-08-21T10:13:36;9.17;;;3.10;;
10554;SDS011;5326;51.522;7.388;2022-08-21T10:16:15;7.50;;;2.67;;
10554;SDS011;5326;51.522;7.388;2022-08-21T10:24:23;8.93;;;3.53;;
10554;SDS011;5326;51.522;7.388;2022-08-21T10:32:22;8.50;;;2.23;;
10554;SDS011;5326;51.522;7.388;2022-08-21T10:37:48;7.53;;;2.83;;
10554;SDS011;5326;51.522;7.388;2022-08-21T10:40:26;8.63;;;2.67;;
10554;SDS011;5326;51.522;7.388;2022-08-21T10:43:07;9.07;;;2.60;;
10554;SDS011;5326;51.522;7.388;2022-08-21T10:56:34;5.60;;;2.07;;
10554;SDS011;5326;51.522;7.388;2022-08-21T11:04:25;4.27;;;2.10;;
10554;SDS011;5326;51.522;7.388;2022-08-21T11:07:19;5.77;;;1.90;;
10554;SDS011;5326;51.522;7.388;2022-08-21T11:09:49;6.57;;;2.33;;
10554;SDS011;5326;51.522;7.388;2022-08-21T11:14:59;6.07;;;2.40;;
10554;SDS011;5326;51.522;7.388;2022-08-21T11:17:49;6.17;;;1.90;;
10554;SDS011;5326;51.522;7.388;2022-08-21T11:20:24;5.67;;;1.90;;
10554;SDS011;5326;51.522;7.388;2022-08-21T11:25:49;6.37;;;1.97;;
10554;SDS011;5326;51.522;7.388;2022-08-21T11:28:26;7.63;;;2.20;;
10554;SDS011;5326;51.522;7.388;2022-08-21T11:30:58;6.10;;;2.20;;
10554;SDS011;5326;51.522;7.388;2022-08-21T11:33:50;6.73;;;1.97;;
10554;SDS011;5326;51.522;7.388;2022-08-21T11:50:35;5.03;;;1.80;;
10554;SDS011;5326;51.522;7.388;2022-08-21T11:53:08;5.03;;;1.90;;
10554;SDS011;5326;51.522;7.388;2022-08-21T11:55:39;4.40;;;1.90;;
10554;SDS011;5326;51.522;7.388;2022-08-21T11:58:11;4.93;;;1.57;;
10554;SDS011;5326;51.522;7.388;2022-08-21T12:00:56;3.53;;;1.73;;
10554;SDS011;5326;51.522;7.388;2022-08-21T12:06:04;4.93;;;2.17;;
10554;SDS011;5326;51.522;7.388;2022-08-21T12:08:37;4.60;;;1.67;;
10554;SDS011;5326;51.522;7.388;2022-08-21T12:11:07;5.20;;;2.00;;
10554;SDS011;5326;51.522;7.388;2022-08-21T12:13:37;3.50;;;1.87;;
10554;SDS011;5326;51.522;7.388;2022-08-21T12:16:15;3.47;;;1.60;;
10554;SDS011;5326;51.522;7.388;2022-08-21T12:19:09;4.27;;;2.00;;
10554;SDS011;5326;51.522;7.388;2022-08-21T12:21:51;3.97;;;1.70;;
10554;SDS011;5326;51.522;7.388;2022-08-21T12:24:32;3.77;;;1.73;;
10554;SDS011;5326;51.522;7.388;2022-08-21T12:29:54;3.37;;;1.60;;
10554;SDS011;5326;51.522;7.388;2022-08-21T12:32:30;4.17;;;1.63;;
10554;SDS011;5326;51.522;7.388;2022-08-21T12:35:21;6.13;;;1.83;;
10554;SDS011;5326;51.522;7.388;2022-08-21T12:40:59;2.97;;;1.33;;
10554;SDS011;5326;51.522;7.388;2022-08-21T12:46:03;6.60;;;1.73;;
10554;SDS011;5326;51.522;7.388;2022-08-21T12:51:36;3.27;;;1.40;;
10554;SDS011;5326;51.522;7.388;2022-08-21T12:54:09;2.37;;;1.50;;
10554;SDS011;5326;51.522;7.388;2022-08-21T12:56:36;4.83;;;1.70;;
10554;SDS011;5326;51.522;7.388;2022-08-21T12:59:06;4.07;;;1.60;;
10554;SDS011;5326;51.522;7.388;2022-08-21T13:01:38;3.90;;;1.60;;
10554;SDS011;5326;51.522;7.388;2022-08-21T13:04:13;4.37;;;1.80;;
10554;SDS011;5326;51.522;7.388;2022-08-21T13:07:00;4.00;;;1.70;;
10554;SDS011;5326;51.522;7.388;2022-08-21T13:09:28;2.43;;;1.50;;
10554;SDS011;5326;51.522;7.388;2022-08-21T13:11:56;3.37;;;1.47;;
10554;SDS011;5326;51.522;7.388;2022-08-21T13:14:39;3.77;;;1.60;;
10554;SDS011;5326;51.522;7.388;2022-08-21T13:17:14;2.67;;;1.50;;
10554;SDS011;5326;51.522;7.388;2022-08-21T13:19:58;3.17;;;1.63;;
10554;SDS011;5326;51.522;7.388;2022-08-21T13:22:27;6.90;;;1.83;;
10554;SDS011;5326;51.522;7.388;2022-08-21T13:24:59;9.20;;;2.60;;
10554;SDS011;5326;51.522;7.388;2022-08-21T13:27:31;3.17;;;1.80;;
10554;SDS011;5326;51.522;7.388;2022-08-21T13:30:06;3.90;;;1.53;;
10554;SDS011;5326;51.522;7.388;2022-08-21T13:32:38;3.53;;;1.80;;
10554;SDS011;5326;51.522;7.388;2022-08-21T13:35:08;2.27;;;1.50;;
10554;SDS011;5326;51.522;7.388;2022-08-21T13:37:55;2.67;;;1.53;;
10554;SDS011;5326;51.522;7.388;2022-08-21T13:40:30;4.40;;;1.60;;
10554;SDS011;5326;51.522;7.388;2022-08-21T13:42:58;2.80;;;1.43;;
10554;SDS011;5326;51.522;7.388;2022-08-21T13:45:34;4.87;;;2.37;;
10554;SDS011;5326;51.522;7.388;2022-08-21T13:48:01;4.80;;;1.60;;
10554;SDS011;5326;51.522;7.388;2022-08-21T13:50:31;3.90;;;1.37;;
10554;SDS011;5326;51.522;7.388;2022-08-21T13:53:03;3.80;;;1.33;;
10554;SDS011;5326;51.522;7.388;2022-08-21T13:55:40;4.20;;;1.90;;
10554;SDS011;5326;51.522;7.388;2022-08-21T13:58:09;3.40;;;1.60;;
10554;SDS011;5326;51.522;7.388;2022-08-21T14:00:46;4.07;;;1.63;;
10554;SDS011;5326;51.522;7.388;2022-08-21T14:03:34;3.50;;;1.73;;
10554;SDS011;5326;51.522;7.388;2022-08-21T14:06:17;4.43;;;1.60;;
10554;SDS011;5326;51.522;7.388;2022-08-21T14:08:49;2.80;;;1.43;;
10554;SDS011;5326;51.522;7.388;2022-08-21T14:11:18;3.80;;;1.60;;
10554;SDS011;5326;51.522;7.388;2022-08-21T14:13:49;4.10;;;1.57;;
10554;SDS011;5326;51.522;7.388;2022-08-21T14:16:23;3.57;;;1.37;;
10554;SDS011;5326;51.522;7.388;2022-08-21T14:21:39;3.30;;;1.30;;
10554;SDS011;5326;51.522;7.388;2022-08-21T14:24:11;1.80;;;1.43;;
10554;SDS011;5326;51.522;7.388;2022-08-21T14:26:47;2.23;;;1.30;;
10554;SDS011;5326;51.522;7.388;2022-08-21T14:29:16;3.33;;;1.47;;
10554;SDS011;5326;51.522;7.388;2022-08-21T14:31:49;1.77;;;1.30;;
10554;SDS011;5326;51.522;7.388;2022-08-21T14:34:22;3.97;;;1.43;;
10554;SDS011;5326;51.522;7.388;2022-08-21T14:36:51;1.83;;;1.13;;
10554;SDS011;5326;51.522;7.388;2022-08-21T14:39:18;3.30;;;1.57;;
10554;SDS011;5326;51.522;7.388;2022-08-21T14:41:46;2.07;;;1.40;;
10554;SDS011;5326;51.522;7.388;2022-08-21T14:44:15;3.13;;;1.40;;
10554;SDS011;5326;51.522;7.388;2022-08-21T14:46:42;3.27;;;1.50;;
10554;SDS011;5326;51.522;7.388;2022-08-21T14:49:21;2.33;;;1.17;;
10554;SDS011;5326;51.522;7.388;2022-08-21T14:51:49;4.30;;;1.60;;
10554;SDS011;5326;51.522;7.388;2022-08-21T14:54:26;3.77;;;2.50;;
10554;SDS011;5326;51.522;7.388;2022-08-21T14:57:07;3.23;;;1.60;;
10554;SDS011;5326;51.522;7.388;2022-08-21T14:59:35;3.87;;;2.00;;
10554;SDS011;5326;51.522;7.388;2022-08-21T15:02:03;5.23;;;1.70;;
10554;SDS011;5326;51.522;7.388;2022-08-21T15:04:30;2.73;;;1.47;;
10554;SDS011;5326;51.522;7.388;2022-08-21T15:06:57;3.33;;;1.53;;
10554;SDS011;5326;51.522;7.388;2022-08-21T15:09:24;1.80;;;1.40;;
10554;SDS011;5326;51.522;7.388;2022-08-21T15:11:55;5.10;;;1.60;;
10554;SDS011;5326;51.522;7.388;2022-08-21T15:14:24;6.00;;;1.60;;
10554;SDS011;5326;51.522;7.388;2022-08-21T15:16:53;2.67;;;1.30;;
10554;SDS011;5326;51.522;7.388;2022-08-21T15:19:20;2.60;;;1.47;;
10554;SDS011;5326;51.522;7.388;2022-08-21T15:21:47;2.40;;;1.43;;
10554;SDS011;5326;51.522;7.388;2022-08-21T15:24:13;2.53;;;1.53;;
10554;SDS011;5326;51.522;7.388;2022-08-21T15:26:40;2.73;;;1.40;;
10554;SDS011;5326;51.522;7.388;2022-08-21T15:29:08;3.97;;;1.50;;
10554;SDS011;5326;51.522;7.388;2022-08-21T15:31:35;3.40;;;1.77;;
10554;SDS011;5326;51.522;7.388;2022-08-21T15:34:02;3.00;;;1.40;;
10554;SDS011;5326;51.522;7.388;2022-08-21T15:36:29;6.30;;;3.80;;
10554;SDS011;5326;51.522;7.388;2022-08-21T15:38:55;5.30;;;2.40;;
10554;SDS011;5326;51.522;7.388;2022-08-21T15:41:22;5.30;;;1.70;;
10554;SDS011;5326;51.522;7.388;2022-08-21T15:43:49;3.70;;;1.77;;
10554;SDS011;5326;51.522;7.388;2022-08-21T15:46:17;2.03;;;1.20;;
10554;SDS011;5326;51.522;7.388;2022-08-21T15:48:45;2.67;;;1.47;;
10554;SDS011;5326;51.522;7.388;2022-08-21T15:51:12;4.80;;;1.90;;
10554;SDS011;5326;51.522;7.388;2022-08-21T15:53:39;3.87;;;1.50;;
10554;SDS011;5326;51.522;7.388;2022-08-21T15:56:09;2.33;;;1.70;;
10554;SDS011;5326;51.522;7.388;2022-08-21T15:58:48;3.40;;;1.67;;
10554;SDS011;5326;51.522;7.388;2022-08-21T16:01:16;5.17;;;1.73;;
10554;SDS011;5326;51.522;7.388;2022-08-21T16:03:43;4.27;;;1.80;;
10554;SDS011;5326;51.522;7.388;2022-08-21T16:06:13;3.43;;;1.60;;
10554;SDS011;5326;51.522;7.388;2022-08-21T16:08:39;4.43;;;2.00;;
10554;SDS011;5326;51.522;7.388;2022-08-21T16:11:06;8.77;;;2.10;;
10554;SDS011;5326;51.522;7.388;2022-08-21T16:13:36;4.63;;;1.77;;
10554;SDS011;5326;51.522;7.388;2022-08-21T16:16:12;11.13;;;5.30;;
10554;SDS011;5326;51.522;7.388;2022-08-21T16:18:46;5.67;;;3.53;;
10554;SDS011;5326;51.522;7.388;2022-08-21T16:21:13;1.90;;;1.57;;
10554;SDS011;5326;51.522;7.388;2022-08-21T16:23:40;4.47;;;1.87;;
10554;SDS011;5326;51.522;7.388;2022-08-21T16:26:08;3.93;;;2.17;;
10554;SDS011;5326;51.522;7.388;2022-08-21T16:28:40;3.23;;;1.70;;
10554;SDS011;5326;51.522;7.388;2022-08-21T16:31:08;5.47;;;1.90;;
10554;SDS011;5326;51.522;7.388;2022-08-21T16:33:48;10.53;;;7.93;;
10554;SDS011;5326;51.522;7.388;2022-08-21T16:36:20;5.37;;;4.20;;
10554;SDS011;5326;51.522;7.388;2022-08-21T16:38:47;2.40;;;2.03;;
10554;SDS011;5326;51.522;7.388;2022-08-21T16:41:15;4.20;;;1.83;;
10554;SDS011;5326;51.522;7.388;2022-08-21T16:43:45;3.40;;;1.93;;
10554;SDS011;5326;51.522;7.388;2022-08-21T16:46:12;4.05;;;2.17;;
10554;SDS011;5326;51.522;7.388;2022-08-21T16:48:40;3.60;;;2.03;;
10554;SDS011;5326;51.522;7.388;2022-08-21T16:51:10;2.57;;;1.80;;
10554;SDS011;5326;51.522;7.388;2022-08-21T16:53:38;6.27;;;3.07;;
10554;SDS011;5326;51.522;7.388;2022-08-21T16:56:04;5.70;;;2.30;;